sensor_id;sensor_type;location;lat;lon;timestamp;pressure;altitude;pressure_sealevel;temperature;humidity
54600;BME280;40500;51.084;16.958;2023-07-31T00:02:25;99970.42;;;16.35;100.00
54600;BME280;40500;51.084;16.958;2023-07-31T00:05:26;99970.05;;;16.32;100.00
54600;BME280;40500;51.084;16.958;2023-07-31T00:08:20;99972.93;;;16.31;100.00
54600;BME280;40500;51.084;16.958;2023-07-31T00:11:12;99971.90;;;16.30;100.00
54600;BME280;40500;51.084;16.958;2023-07-31T00:14:04;99975.27;;;16.30;100.00
54600;BME280;40500;51.084;16.958;2023-07-31T00:16:57;99973.90;;;16.29;100.00
54600;BME280;40500;51.084;16.958;2023-07-31T00:19:49;99974.80;;;16.28;100.00
54600;BME280;40500;51.084;16.958;2023-07-31T00:22:21;99978.55;;;16.28;100.00
54600;BME280;40500;51.084;16.958;2023-07-31T00:24:55;99977.57;;;16.26;100.00
54600;BME280;40500;51.084;16.958;2023-07-31T00:27:46;99979.24;;;16.24;100.00
54600;BME280;40500;51.084;16.958;2023-07-31T00:30:21;99978.79;;;16.23;100.00
54600;BME280;40500;51.084;16.958;2023-07-31T00:33:15;99985.39;;;16.21;100.00
54600;BME280;40500;51.084;16.958;2023-07-31T00:35:52;99981.56;;;16.20;100.00
54600;BME280;40500;51.084;16.958;2023-07-31T00:38:23;99979.65;;;16.19;100.00
54600;BME280;40500;51.084;16.958;2023-07-31T00:40:55;99977.59;;;16.17;100.00
54600;BME280;40500;51.084;16.958;2023-07-31T00:43:49;99975.10;;;16.18;100.00
54600;BME280;40500;51.084;16.958;2023-07-31T00:46:24;99977.03;;;16.18;100.00
54600;BME280;40500;51.084;16.958;2023-07-31T00:49:12;99979.39;;;16.17;100.00
54600;BME280;40500;51.084;16.958;2023-07-31T00:51:48;99975.58;;;16.15;100.00
54600;BME280;40500;51.084;16.958;2023-07-31T00:54:40;99977.70;;;16.15;100.00
54600;BME280;40500;51.084;16.958;2023-07-31T00:57:34;99975.16;;;16.17;100.00
54600;BME280;40500;51.084;16.958;2023-07-31T01:00:09;99976.05;;;16.16;100.00
54600;BME280;40500;51.084;16.958;2023-07-31T01:02:55;99976.16;;;16.14;100.00
54600;BME280;40500;51.084;16.958;2023-07-31T01:05:33;99978.13;;;16.14;100.00
54600;BME280;40500;51.084;16.958;2023-07-31T01:08:15;99972.84;;;16.14;100.00
54600;BME280;40500;51.084;16.958;2023-07-31T01:10:53;99976.14;;;16.15;100.00
54600;BME280;40500;51.084;16.958;2023-07-31T01:13:29;99979.19;;;16.13;100.00
54600;BME280;40500;51.084;16.958;2023-07-31T01:16:02;99977.51;;;16.12;100.00
54600;BME280;40500;51.084;16.958;2023-07-31T01:18:55;99980.35;;;16.11;100.00
54600;BME280;40500;51.084;16.958;2023-07-31T01:21:46;99982.00;;;16.10;100.00
54600;BME280;40500;51.084;16.958;2023-07-31T01:24:46;99985.05;;;16.09;100.00
54600;BME280;40500;51.084;16.958;2023-07-31T01:27:28;99978.52;;;16.10;100.00
54600;BME280;40500;51.084;16.958;2023-07-31T01:30:27;99980.66;;;16.08;100.00
54600;BME280;40500;51.084;16.958;2023-07-31T01:33:02;99980.99;;;16.09;100.00
54600;BME280;40500;51.084;16.958;2023-07-31T01:35:36;99974.45;;;16.09;100.00
54600;BME280;40500;51.084;16.958;2023-07-31T01:38:29;99979.07;;;16.09;100.00
54600;BME280;40500;51.084;16.958;2023-07-31T01:41:01;99977.50;;;16.08;100.00
54600;BME280;40500;51.084;16.958;2023-07-31T01:43:52;99977.77;;;16.07;100.00
54600;BME280;40500;51.084;16.958;2023-07-31T01:46:23;99975.16;;;16.05;100.00
54600;BME280;40500;51.084;16.958;2023-07-31T01:49:14;99969.60;;;16.03;100.00
54600;BME280;40500;51.084;16.958;2023-07-31T01:51:45;99967.37;;;16.02;100.00
54600;BME280;40500;51.084;16.958;2023-07-31T01:54:32;99972.77;;;15.99;100.00
54600;BME280;40500;51.084;16.958;2023-07-31T01:57:06;99968.05;;;15.98;100.00
54600;BME280;40500;51.084;16.958;2023-07-31T01:59:41;99969.08;;;15.99;100.00
54600;BME280;40500;51.084;16.958;2023-07-31T02:02:15;99973.11;;;16.00;100.00
54600;BME280;40500;51.084;16.958;2023-07-31T02:05:21;99971.98;;;16.01;100.00
54600;BME280;40500;51.084;16.958;2023-07-31T02:08:14;99973.56;;;16.01;100.00
54600;BME280;40500;51.084;16.958;2023-07-31T02:10:46;99976.41;;;16.01;100.00
54600;BME280;40500;51.084;16.958;2023-07-31T02:13:18;99976.02;;;16.01;100.00
54600;BME280;40500;51.084;16.958;2023-07-31T02:15:51;99982.05;;;16.01;100.00
54600;BME280;40500;51.084;16.958;2023-07-31T02:18:23;99978.98;;;16.03;100.00
54600;BME280;40500;51.084;16.958;2023-07-31T02:20:56;99973.86;;;16.03;100.00
54600;BME280;40500;51.084;16.958;2023-07-31T02:23:37;99971.73;;;16.03;100.00
54600;BME280;40500;51.084;16.958;2023-07-31T02:26:09;99973.15;;;16.03;100.00
54600;BME280;40500;51.084;16.958;2023-07-31T02:28:42;99973.87;;;16.03;100.00
54600;BME280;40500;51.084;16.958;2023-07-31T02:31:14;99971.02;;;16.03;100.00
54600;BME280;40500;51.084;16.958;2023-07-31T02:33:49;99972.46;;;16.02;100.00
54600;BME280;40500;51.084;16.958;2023-07-31T02:36:44;99970.73;;;16.01;100.00
54600;BME280;40500;51.084;16.958;2023-07-31T02:39:15;99968.42;;;15.98;100.00
54600;BME280;40500;51.084;16.958;2023-07-31T02:41:46;99965.93;;;15.94;100.00
54600;BME280;40500;51.084;16.958;2023-07-31T02:44:40;99967.04;;;15.89;100.00
54600;BME280;40500;51.084;16.958;2023-07-31T02:47:14;99967.27;;;15.84;100.00
54600;BME280;40500;51.084;16.958;2023-07-31T02:50:00;99965.73;;;15.79;100.00
54600;BME280;40500;51.084;16.958;2023-07-31T02:52:51;99968.36;;;15.75;100.00
54600;BME280;40500;51.084;16.958;2023-07-31T02:55:31;99966.02;;;15.72;100.00
54600;BME280;40500;51.084;16.958;2023-07-31T02:58:01;99967.48;;;15.70;100.00
54600;BME280;40500;51.084;16.958;2023-07-31T03:00:35;99971.95;;;15.69;100.00
54600;BME280;40500;51.084;16.958;2023-07-31T03:03:27;99971.90;;;15.67;100.00
54600;BME280;40500;51.084;16.958;2023-07-31T03:05:59;99966.39;;;15.63;100.00
54600;BME280;40500;51.084;16.958;2023-07-31T03:08:32;99967.84;;;15.62;100.00
54600;BME280;40500;51.084;16.958;2023-07-31T03:11:24;99966.86;;;15.61;100.00
54600;BME280;40500;51.084;16.958;2023-07-31T03:13:57;99973.27;;;15.59;100.00
54600;BME280;40500;51.084;16.958;2023-07-31T03:16:50;99974.65;;;15.56;100.00
54600;BME280;40500;51.084;16.958;2023-07-31T03:19:25;99974.04;;;15.54;100.00
54600;BME280;40500;51.084;16.958;2023-07-31T03:21:55;99971.84;;;15.52;100.00
54600;BME280;40500;51.084;16.958;2023-07-31T03:24:38;99966.88;;;15.48;100.00
54600;BME280;40500;51.084;16.958;2023-07-31T03:27:25;99974.74;;;15.46;100.00
54600;BME280;40500;51.084;16.958;2023-07-31T03:30:18;99976.64;;;15.42;100.00
54600;BME280;40500;51.084;16.958;2023-07-31T03:32:53;99973.23;;;15.39;100.00
54600;BME280;40500;51.084;16.958;2023-07-31T03:35:23;99973.32;;;15.38;100.00
54600;BME280;40500;51.084;16.958;2023-07-31T03:37:57;99976.80;;;15.38;100.00
54600;BME280;40500;51.084;16.958;2023-07-31T03:40:30;99971.86;;;15.38;100.00
54600;BME280;40500;51.084;16.958;2023-07-31T03:43:04;99974.27;;;15.40;100.00
54600;BME280;40500;51.084;16.958;2023-07-31T03:45:35;99976.56;;;15.40;100.00
54600;BME280;40500;51.084;16.958;2023-07-31T03:48:07;99974.59;;;15.41;100.00
54600;BME280;40500;51.084;16.958;2023-07-31T03:50:39;99976.12;;;15.42;100.00
54600;BME280;40500;51.084;16.958;2023-07-31T03:53:30;99973.64;;;15.42;100.00
54600;BME280;40500;51.084;16.958;2023-07-31T03:56:31;99974.14;;;15.43;100.00
54600;BME280;40500;51.084;16.958;2023-07-31T03:59:04;99968.13;;;15.44;100.00
54600;BME280;40500;51.084;16.958;2023-07-31T04:01:38;99963.86;;;15.45;100.00
54600;BME280;40500;51.084;16.958;2023-07-31T04:04:19;99964.39;;;15.45;100.00
54600;BME280;40500;51.084;16.958;2023-07-31T04:07:15;99959.60;;;15.45;100.00
54600;BME280;40500;51.084;16.958;2023-07-31T04:09:48;99963.80;;;15.46;100.00
54600;BME280;40500;51.084;16.958;2023-07-31T04:12:23;99964.48;;;15.47;100.00
54600;BME280;40500;51.084;16.958;2023-07-31T04:15:17;99965.64;;;15.48;100.00
54600;BME280;40500;51.084;16.958;2023-07-31T04:17:51;99967.23;;;15.52;100.00
54600;BME280;40500;51.084;16.958;2023-07-31T04:20:32;99963.98;;;15.58;100.00
54600;BME280;40500;51.084;16.958;2023-07-31T04:23:23;99968.91;;;15.62;100.00
54600;BME280;40500;51.084;16.958;2023-07-31T04:25:54;99966.92;;;15.67;100.00
54600;BME280;40500;51.084;16.958;2023-07-31T04:28:46;99966.66;;;15.74;100.00
54600;BME280;40500;51.084;16.958;2023-07-31T04:31:19;99964.54;;;15.78;100.00
54600;BME280;40500;51.084;16.958;2023-07-31T04:34:09;99966.75;;;15.84;100.00
54600;BME280;40500;51.084;16.958;2023-07-31T04:36:41;99967.93;;;15.90;100.00
54600;BME280;40500;51.084;16.958;2023-07-31T04:39:11;99968.20;;;15.95;100.00
54600;BME280;40500;51.084;16.958;2023-07-31T04:41:44;99969.82;;;16.02;100.00
54600;BME280;40500;51.084;16.958;2023-07-31T04:44:15;99963.00;;;16.08;100.00
54600;BME280;40500;51.084;16.958;2023-07-31T04:46:48;99965.98;;;16.17;100.00
54600;BME280;40500;51.084;16.958;2023-07-31T04:49:24;99965.79;;;16.25;100.00
54600;BME280;40500;51.084;16.958;2023-07-31T04:52:19;99967.68;;;16.33;100.00
54600;BME280;40500;51.084;16.958;2023-07-31T04:55:11;99962.02;;;16.41;100.00
54600;BME280;40500;51.084;16.958;2023-07-31T04:57:46;99959.81;;;16.50;100.00
54600;BME280;40500;51.084;16.958;2023-07-31T05:00:19;99962.02;;;16.60;100.00
54600;BME280;40500;51.084;16.958;2023-07-31T05:02:52;99955.82;;;16.68;100.00
54600;BME280;40500;51.084;16.958;2023-07-31T05:05:26;99957.70;;;16.76;100.00
54600;BME280;40500;51.084;16.958;2023-07-31T05:07:57;99959.55;;;16.82;100.00
54600;BME280;40500;51.084;16.958;2023-07-31T05:10:48;99960.71;;;16.91;100.00
54600;BME280;40500;51.084;16.958;2023-07-31T05:13:47;99959.52;;;17.01;100.00
54600;BME280;40500;51.084;16.958;2023-07-31T05:16:24;99961.42;;;17.09;100.00
54600;BME280;40500;51.084;16.958;2023-07-31T05:19:15;99958.98;;;17.15;100.00
54600;BME280;40500;51.084;16.958;2023-07-31T05:22:16;99959.56;;;17.21;100.00
54600;BME280;40500;51.084;16.958;2023-07-31T05:24:54;99956.92;;;17.25;100.00
54600;BME280;40500;51.084;16.958;2023-07-31T05:27:28;99960.42;;;17.29;100.00
54600;BME280;40500;51.084;16.958;2023-07-31T05:30:02;99955.91;;;17.34;100.00
54600;BME280;40500;51.084;16.958;2023-07-31T05:32:35;99961.00;;;17.38;100.00
54600;BME280;40500;51.084;16.958;2023-07-31T05:35:09;99965.98;;;17.45;100.00
54600;BME280;40500;51.084;16.958;2023-07-31T05:37:39;99964.96;;;17.51;100.00
54600;BME280;40500;51.084;16.958;2023-07-31T05:40:15;99960.65;;;17.55;100.00
54600;BME280;40500;51.084;16.958;2023-07-31T05:42:48;99957.38;;;17.61;100.00
54600;BME280;40500;51.084;16.958;2023-07-31T05:45:20;99954.26;;;17.66;100.00
54600;BME280;40500;51.084;16.958;2023-07-31T05:47:59;99951.00;;;17.71;100.00
54600;BME280;40500;51.084;16.958;2023-07-31T05:50:35;99950.45;;;17.78;100.00
54600;BME280;40500;51.084;16.958;2023-07-31T05:53:11;99950.63;;;17.86;100.00
54600;BME280;40500;51.084;16.958;2023-07-31T05:55:45;99950.36;;;17.90;100.00
54600;BME280;40500;51.084;16.958;2023-07-31T05:58:16;99946.63;;;17.94;100.00
54600;BME280;40500;51.084;16.958;2023-07-31T06:00:47;99947.17;;;18.00;100.00
54600;BME280;40500;51.084;16.958;2023-07-31T06:03:18;99943.75;;;18.05;100.00
54600;BME280;40500;51.084;16.958;2023-07-31T06:05:51;99941.91;;;18.09;100.00
54600;BME280;40500;51.084;16.958;2023-07-31T06:08:21;99945.82;;;18.15;100.00
54600;BME280;40500;51.084;16.958;2023-07-31T06:10:52;99945.74;;;18.20;100.00
54600;BME280;40500;51.084;16.958;2023-07-31T06:13:26;99943.48;;;18.23;100.00
54600;BME280;40500;51.084;16.958;2023-07-31T06:15:57;99946.13;;;18.26;100.00
54600;BME280;40500;51.084;16.958;2023-07-31T06:18:29;99945.94;;;18.29;100.00
54600;BME280;40500;51.084;16.958;2023-07-31T06:21:00;99940.35;;;18.34;100.00
54600;BME280;40500;51.084;16.958;2023-07-31T06:23:31;99940.30;;;18.41;100.00
54600;BME280;40500;51.084;16.958;2023-07-31T06:26:01;99940.79;;;18.49;100.00
54600;BME280;40500;51.084;16.958;2023-07-31T06:28:32;99942.27;;;18.57;100.00
54600;BME280;40500;51.084;16.958;2023-07-31T06:31:03;99941.26;;;18.66;100.00
54600;BME280;40500;51.084;16.958;2023-07-31T06:33:37;99942.82;;;18.76;100.00
54600;BME280;40500;51.084;16.958;2023-07-31T06:36:07;99936.59;;;18.86;100.00
54600;BME280;40500;51.084;16.958;2023-07-31T06:38:37;99944.46;;;18.97;100.00
54600;BME280;40500;51.084;16.958;2023-07-31T06:41:08;99947.25;;;19.07;100.00
54600;BME280;40500;51.084;16.958;2023-07-31T06:43:40;99945.68;;;19.16;100.00
54600;BME280;40500;51.084;16.958;2023-07-31T06:46:11;99948.23;;;19.21;100.00
54600;BME280;40500;51.084;16.958;2023-07-31T06:48:41;99944.82;;;19.24;100.00
54600;BME280;40500;51.084;16.958;2023-07-31T06:51:15;99944.76;;;19.28;100.00
54600;BME280;40500;51.084;16.958;2023-07-31T06:53:50;99945.55;;;19.30;100.00
54600;BME280;40500;51.084;16.958;2023-07-31T06:56:22;99946.46;;;19.32;100.00
54600;BME280;40500;51.084;16.958;2023-07-31T06:58:52;99944.37;;;19.38;100.00
54600;BME280;40500;51.084;16.958;2023-07-31T07:01:28;99940.76;;;19.42;100.00
54600;BME280;40500;51.084;16.958;2023-07-31T07:04:04;99932.27;;;19.47;100.00
54600;BME280;40500;51.084;16.958;2023-07-31T07:06:40;99934.12;;;19.52;100.00
54600;BME280;40500;51.084;16.958;2023-07-31T07:09:11;99936.39;;;19.58;100.00
54600;BME280;40500;51.084;16.958;2023-07-31T07:11:42;99933.77;;;19.64;100.00
54600;BME280;40500;51.084;16.958;2023-07-31T07:14:12;99929.72;;;19.69;100.00
54600;BME280;40500;51.084;16.958;2023-07-31T07:16:43;99928.40;;;19.76;100.00
54600;BME280;40500;51.084;16.958;2023-07-31T07:19:15;99930.95;;;19.84;100.00
54600;BME280;40500;51.084;16.958;2023-07-31T07:21:53;99929.80;;;19.91;100.00
54600;BME280;40500;51.084;16.958;2023-07-31T07:24:23;99927.01;;;19.90;100.00
54600;BME280;40500;51.084;16.958;2023-07-31T07:26:58;99929.40;;;19.92;100.00
54600;BME280;40500;51.084;16.958;2023-07-31T07:29:28;99927.30;;;19.94;100.00
54600;BME280;40500;51.084;16.958;2023-07-31T07:31:58;99917.73;;;19.94;100.00
54600;BME280;40500;51.084;16.958;2023-07-31T07:34:29;99917.92;;;19.93;100.00
54600;BME280;40500;51.084;16.958;2023-07-31T07:37:00;99911.60;;;19.89;100.00
54600;BME280;40500;51.084;16.958;2023-07-31T07:39:30;99915.91;;;19.88;100.00
54600;BME280;40500;51.084;16.958;2023-07-31T07:42:05;99912.23;;;19.91;100.00
54600;BME280;40500;51.084;16.958;2023-07-31T07:44:38;99913.38;;;20.01;100.00
54600;BME280;40500;51.084;16.958;2023-07-31T07:47:11;99912.70;;;20.14;100.00
54600;BME280;40500;51.084;16.958;2023-07-31T07:49:42;99911.80;;;20.26;100.00
54600;BME280;40500;51.084;16.958;2023-07-31T07:52:19;99907.50;;;20.37;100.00
54600;BME280;40500;51.084;16.958;2023-07-31T07:54:50;99908.08;;;20.42;100.00
54600;BME280;40500;51.084;16.958;2023-07-31T07:57:20;99910.19;;;20.43;100.00
54600;BME280;40500;51.084;16.958;2023-07-31T07:59:53;99907.30;;;20.46;100.00
54600;BME280;40500;51.084;16.958;2023-07-31T08:02:24;99902.89;;;20.56;100.00
54600;BME280;40500;51.084;16.958;2023-07-31T08:04:55;99896.80;;;20.66;100.00
54600;BME280;40500;51.084;16.958;2023-07-31T08:07:25;99900.50;;;20.74;100.00
54600;BME280;40500;51.084;16.958;2023-07-31T08:10:02;99896.21;;;20.85;100.00
54600;BME280;40500;51.084;16.958;2023-07-31T08:12:35;99890.95;;;21.00;100.00
54600;BME280;40500;51.084;16.958;2023-07-31T08:15:20;99892.46;;;21.17;100.00
54600;BME280;40500;51.084;16.958;2023-07-31T08:18:04;99894.84;;;21.40;100.00
54600;BME280;40500;51.084;16.958;2023-07-31T08:20:44;99892.21;;;21.60;100.00
54600;BME280;40500;51.084;16.958;2023-07-31T08:23:15;99894.36;;;21.83;100.00
54600;BME280;40500;51.084;16.958;2023-07-31T08:25:46;99894.39;;;21.95;100.00
54600;BME280;40500;51.084;16.958;2023-07-31T08:28:19;99895.71;;;22.04;100.00
54600;BME280;40500;51.084;16.958;2023-07-31T08:30:49;99899.75;;;22.05;100.00
54600;BME280;40500;51.084;16.958;2023-07-31T08:33:21;99901.13;;;22.07;100.00
54600;BME280;40500;51.084;16.958;2023-07-31T08:35:53;99904.31;;;22.16;100.00
54600;BME280;40500;51.084;16.958;2023-07-31T08:38:25;99906.64;;;22.08;100.00
54600;BME280;40500;51.084;16.958;2023-07-31T08:40:59;99904.61;;;21.94;100.00
54600;BME280;40500;51.084;16.958;2023-07-31T08:43:31;99901.76;;;21.82;100.00
54600;BME280;40500;51.084;16.958;2023-07-31T08:46:03;99912.05;;;21.67;100.00
54600;BME280;40500;51.084;16.958;2023-07-31T08:48:36;99903.47;;;21.49;100.00
54600;BME280;40500;51.084;16.958;2023-07-31T08:51:08;99903.42;;;21.47;100.00
54600;BME280;40500;51.084;16.958;2023-07-31T08:53:38;99897.48;;;21.46;100.00
54600;BME280;40500;51.084;16.958;2023-07-31T08:56:10;99898.38;;;21.43;100.00
54600;BME280;40500;51.084;16.958;2023-07-31T08:58:46;99900.61;;;21.39;100.00
54600;BME280;40500;51.084;16.958;2023-07-31T09:01:18;99904.70;;;21.23;100.00
54600;BME280;40500;51.084;16.958;2023-07-31T09:03:51;99907.10;;;21.11;100.00
54600;BME280;40500;51.084;16.958;2023-07-31T09:06:26;99905.76;;;21.07;100.00
54600;BME280;40500;51.084;16.958;2023-07-31T09:08:58;99908.25;;;21.12;100.00
54600;BME280;40500;51.084;16.958;2023-07-31T09:11:29;99901.21;;;21.17;100.00
54600;BME280;40500;51.084;16.958;2023-07-31T09:14:00;99895.08;;;21.25;100.00
54600;BME280;40500;51.084;16.958;2023-07-31T09:16:52;99901.02;;;21.35;100.00
54600;BME280;40500;51.084;16.958;2023-07-31T09:19:29;99902.00;;;21.23;100.00
54600;BME280;40500;51.084;16.958;2023-07-31T09:22:00;99906.41;;;21.08;100.00
54600;BME280;40500;51.084;16.958;2023-07-31T09:24:33;99906.64;;;21.02;100.00
54600;BME280;40500;51.084;16.958;2023-07-31T09:27:05;99909.70;;;20.94;100.00
54600;BME280;40500;51.084;16.958;2023-07-31T09:29:38;99912.60;;;20.85;100.00
54600;BME280;40500;51.084;16.958;2023-07-31T09:32:17;99916.20;;;20.73;100.00
54600;BME280;40500;51.084;16.958;2023-07-31T09:34:47;99915.98;;;20.66;100.00
54600;BME280;40500;51.084;16.958;2023-07-31T09:37:32;99919.55;;;20.63;100.00
54600;BME280;40500;51.084;16.958;2023-07-31T09:40:10;99923.90;;;20.67;100.00
54600;BME280;40500;51.084;16.958;2023-07-31T09:42:55;99922.27;;;20.70;100.00
54600;BME280;40500;51.084;16.958;2023-07-31T09:45:27;99922.73;;;20.69;100.00
54600;BME280;40500;51.084;16.958;2023-07-31T09:48:10;99919.37;;;20.69;100.00
54600;BME280;40500;51.084;16.958;2023-07-31T09:50:44;99915.66;;;20.74;100.00
54600;BME280;40500;51.084;16.958;2023-07-31T09:53:17;99918.11;;;20.77;100.00
54600;BME280;40500;51.084;16.958;2023-07-31T09:55:49;99913.86;;;20.79;100.00
54600;BME280;40500;51.084;16.958;2023-07-31T09:58:20;99916.78;;;20.76;100.00
54600;BME280;40500;51.084;16.958;2023-07-31T10:00:51;99920.46;;;20.68;100.00
54600;BME280;40500;51.084;16.958;2023-07-31T10:03:26;99916.96;;;20.56;100.00
54600;BME280;40500;51.084;16.958;2023-07-31T10:05:58;99911.16;;;20.52;100.00
54600;BME280;40500;51.084;16.958;2023-07-31T10:08:32;99909.06;;;20.49;100.00
54600;BME280;40500;51.084;16.958;2023-07-31T10:11:06;99905.31;;;20.46;100.00
54600;BME280;40500;51.084;16.958;2023-07-31T10:13:38;99900.16;;;20.41;100.00
54600;BME280;40500;51.084;16.958;2023-07-31T10:16:09;99903.10;;;20.39;100.00
54600;BME280;40500;51.084;16.958;2023-07-31T10:18:41;99901.32;;;20.47;100.00
54600;BME280;40500;51.084;16.958;2023-07-31T10:21:12;99901.02;;;20.55;100.00
54600;BME280;40500;51.084;16.958;2023-07-31T10:23:44;99904.82;;;20.54;100.00
54600;BME280;40500;51.084;16.958;2023-07-31T10:26:16;99903.73;;;20.54;100.00
54600;BME280;40500;51.084;16.958;2023-07-31T10:28:48;99907.88;;;20.53;100.00
54600;BME280;40500;51.084;16.958;2023-07-31T10:31:18;99900.88;;;20.51;100.00
54600;BME280;40500;51.084;16.958;2023-07-31T10:33:55;99898.99;;;20.56;100.00
54600;BME280;40500;51.084;16.958;2023-07-31T10:36:26;99900.20;;;20.63;100.00
54600;BME280;40500;51.084;16.958;2023-07-31T10:38:57;99902.88;;;20.70;100.00
54600;BME280;40500;51.084;16.958;2023-07-31T10:41:32;99899.27;;;20.71;100.00
54600;BME280;40500;51.084;16.958;2023-07-31T10:44:03;99904.77;;;20.66;100.00
54600;BME280;40500;51.084;16.958;2023-07-31T10:46:35;99900.80;;;20.50;100.00
54600;BME280;40500;51.084;16.958;2023-07-31T10:49:07;99899.33;;;20.34;100.00
54600;BME280;40500;51.084;16.958;2023-07-31T10:51:38;99896.95;;;20.27;100.00
54600;BME280;40500;51.084;16.958;2023-07-31T10:54:15;99891.31;;;20.29;100.00
54600;BME280;40500;51.084;16.958;2023-07-31T10:56:47;99883.67;;;20.37;100.00
54600;BME280;40500;51.084;16.958;2023-07-31T10:59:27;99881.67;;;20.46;100.00
54600;BME280;40500;51.084;16.958;2023-07-31T11:02:04;99874.41;;;20.62;100.00
54600;BME280;40500;51.084;16.958;2023-07-31T11:04:35;99873.69;;;20.84;100.00
54600;BME280;40500;51.084;16.958;2023-07-31T11:07:06;99873.95;;;21.04;100.00
54600;BME280;40500;51.084;16.958;2023-07-31T11:09:41;99867.93;;;21.32;100.00
54600;BME280;40500;51.084;16.958;2023-07-31T11:12:12;99862.70;;;21.61;100.00
54600;BME280;40500;51.084;16.958;2023-07-31T11:14:42;99861.73;;;22.03;100.00
54600;BME280;40500;51.084;16.958;2023-07-31T11:17:13;99861.00;;;22.38;100.00
54600;BME280;40500;51.084;16.958;2023-07-31T11:19:43;99854.66;;;22.54;100.00
54600;BME280;40500;51.084;16.958;2023-07-31T11:22:14;99847.91;;;22.70;100.00
54600;BME280;40500;51.084;16.958;2023-07-31T11:24:45;99847.55;;;22.93;100.00
54600;BME280;40500;51.084;16.958;2023-07-31T11:27:16;99846.23;;;23.13;100.00
54600;BME280;40500;51.084;16.958;2023-07-31T11:29:46;99847.28;;;23.16;100.00
54600;BME280;40500;51.084;16.958;2023-07-31T11:32:18;99834.98;;;23.04;100.00
54600;BME280;40500;51.084;16.958;2023-07-31T11:34:55;99830.73;;;23.04;100.00
54600;BME280;40500;51.084;16.958;2023-07-31T11:37:40;99829.74;;;23.07;100.00
54600;BME280;40500;51.084;16.958;2023-07-31T11:40:12;99830.27;;;23.14;100.00
54600;BME280;40500;51.084;16.958;2023-07-31T11:42:42;99826.05;;;23.08;100.00
54600;BME280;40500;51.084;16.958;2023-07-31T11:45:13;99827.53;;;23.17;100.00
54600;BME280;40500;51.084;16.958;2023-07-31T11:47:45;99822.75;;;23.17;100.00
54600;BME280;40500;51.084;16.958;2023-07-31T11:50:16;99815.48;;;23.18;100.00
54600;BME280;40500;51.084;16.958;2023-07-31T11:52:47;99814.15;;;23.29;100.00
54600;BME280;40500;51.084;16.958;2023-07-31T11:55:20;99813.31;;;23.42;100.00
54600;BME280;40500;51.084;16.958;2023-07-31T11:57:51;99809.93;;;23.57;100.00
54600;BME280;40500;51.084;16.958;2023-07-31T12:00:22;99807.35;;;23.74;100.00
54600;BME280;40500;51.084;16.958;2023-07-31T12:02:54;99792.59;;;24.00;100.00
54600;BME280;40500;51.084;16.958;2023-07-31T12:05:25;99793.05;;;24.07;100.00
54600;BME280;40500;51.084;16.958;2023-07-31T12:07:56;99792.60;;;23.97;100.00
54600;BME280;40500;51.084;16.958;2023-07-31T12:10:29;99788.79;;;23.71;100.00
54600;BME280;40500;51.084;16.958;2023-07-31T12:13:05;99790.33;;;23.52;100.00
54600;BME280;40500;51.084;16.958;2023-07-31T12:15:38;99783.52;;;23.37;100.00
54600;BME280;40500;51.084;16.958;2023-07-31T12:18:13;99783.30;;;23.23;100.00
54600;BME280;40500;51.084;16.958;2023-07-31T12:20:46;99778.42;;;23.12;100.00
54600;BME280;40500;51.084;16.958;2023-07-31T12:23:19;99775.92;;;23.22;100.00
54600;BME280;40500;51.084;16.958;2023-07-31T12:26:04;99766.08;;;24.24;100.00
54600;BME280;40500;51.084;16.958;2023-07-31T12:28:39;99760.73;;;24.73;100.00
54600;BME280;40500;51.084;16.958;2023-07-31T12:31:11;99755.62;;;24.72;100.00
54600;BME280;40500;51.084;16.958;2023-07-31T12:33:43;99748.23;;;25.43;100.00
54600;BME280;40500;51.084;16.958;2023-07-31T12:36:15;99750.04;;;25.23;100.00
54600;BME280;40500;51.084;16.958;2023-07-31T12:38:46;99747.75;;;25.14;100.00
54600;BME280;40500;51.084;16.958;2023-07-31T12:41:17;99738.12;;;25.62;100.00
54600;BME280;40500;51.084;16.958;2023-07-31T12:43:49;99748.78;;;25.15;100.00
54600;BME280;40500;51.084;16.958;2023-07-31T12:46:19;99740.54;;;24.62;100.00
54600;BME280;40500;51.084;16.958;2023-07-31T12:48:50;99735.09;;;24.22;100.00
54600;BME280;40500;51.084;16.958;2023-07-31T12:51:20;99735.54;;;23.93;100.00
54600;BME280;40500;51.084;16.958;2023-07-31T12:53:51;99735.13;;;23.54;100.00
54600;BME280;40500;51.084;16.958;2023-07-31T12:56:22;99734.09;;;23.22;100.00
54600;BME280;40500;51.084;16.958;2023-07-31T12:58:52;99724.79;;;23.56;100.00
54600;BME280;40500;51.084;16.958;2023-07-31T13:01:23;99710.65;;;24.36;100.00
54600;BME280;40500;51.084;16.958;2023-07-31T13:03:53;99710.77;;;24.39;100.00
54600;BME280;40500;51.084;16.958;2023-07-31T13:06:24;99710.42;;;24.83;100.00
54600;BME280;40500;51.084;16.958;2023-07-31T13:08:54;99708.64;;;24.92;100.00
54600;BME280;40500;51.084;16.958;2023-07-31T13:11:25;99706.83;;;25.27;100.00
54600;BME280;40500;51.084;16.958;2023-07-31T13:13:56;99707.41;;;25.24;100.00
54600;BME280;40500;51.084;16.958;2023-07-31T13:16:26;99708.24;;;25.19;100.00
54600;BME280;40500;51.084;16.958;2023-07-31T13:18:57;99703.95;;;25.19;100.00
54600;BME280;40500;51.084;16.958;2023-07-31T13:21:30;99697.97;;;25.40;100.00
54600;BME280;40500;51.084;16.958;2023-07-31T13:24:00;99689.84;;;25.47;100.00
54600;BME280;40500;51.084;16.958;2023-07-31T13:26:30;99686.80;;;25.22;100.00